Česky Dansk Deutsch English Español Suomi Français Magyar Italiano Nederlands norsk Polski Português svenska Türkçe

 

Het Weer

Maintirano (Madagascar)

09:00, 15 februari 2016 (GMT)

 
WE
 
Home            
Maintirano Besalampy Morondava Majunga Antananarivo / Ivato Antsirabe Morombe Lumbo Fianarantsoa Ranohira Mahanoro Analalava Tamatave Mananjary Tulear Dzaoudzi / Pamanzi Mayotte Nampula Sainte-Marie Aerodrome Farafangana Ouani Anjouan Pemba Fascene Nossi-Be Andapa

Om een weerknop op uw website of weblog te plaatsen, copieer onderstaande code en plak die in uw pagina. In het eerste vakje staat HTML-code, in het tweede vakje UBB-code.


Add to Google

Details

Visibility:Greater than 10000 m, 10 km, 32800 ft, 6.2 miles
Clouds:Geschlossene Wolkendecke at 1100 ft, 335 m
Temperature:27°C, 81°F
Gefühlte Temperatur:30°C, 86°F
Dew-point:23°C, 73°F
Atmospheric pressure:1011 hPa, 758.3 mmHg, 29.85 inHg, 0.998 atm
Relative humidity:78.8 %
METAR:FMMO 150900Z 00000KT 9999 OVC011 27/23 Q1011

Snelkoppelingen

Actuele weersinformatie van de hele wereld. Voeg locaties toe met het plus (+) symbool. Deze snelkoppelingen kunnen worden toegevoegd aan Google.

Lid van de Technetium groep

website free tracking
StatCounter NetStat W3C Validator

21-08-2017 09:21:01
astro.technetium.be money.technetium.be phote.technetium.be tafeltennistafel.technetium.be www.ligfiets.net